< Cyclone 199003 1990 Season Cyclone 199005 >
Cyclone 199004 (SAM)
General InformationTrack Information on Google MapsDetailed Wind InformationList of All Images || ResourceGoogle EarthGE AnimationAtom FeedGeoJSON
Detalied Best Track (Time Zone = UTC)
Year Month Day Hour Lat. Long. Pressure (hPa) Wind (kt) Class Image Chart
1990 1 11 18 -11.9 130.5 1003 27 2 Image --
1990 1 12 00 -12.5 129.5 1003 27 2 Image --
1990 1 12 06 -12.7 128.6 1003 27 2 Image --
1990 1 12 12 -12.9 127.7 1002 27 2 Image --
1990 1 12 18 -13.1 126.7 1001 29 2 Image --
1990 1 13 00 -13.2 125.6 999 33 2 Image --
1990 1 13 06 -13.3 124.6 997 35 3 Image --
1990 1 13 12 -13.3 123.5 995 39 3 Image --
1990 1 13 18 -13.4 122.6 993 41 3 Image --
1990 1 14 00 -13.7 121.8 986 53 4 Image --
1990 1 14 06 -13.9 121.0 982 58 4 Image --
1990 1 14 12 -14.1 119.9 978 64 5 Image --
1990 1 14 18 -14.4 118.8 972 70 5 Image --
1990 1 15 00 -14.7 117.5 972 70 5 Image --
1990 1 15 06 -14.9 116.3 972 70 5 Image --
1990 1 15 12 -15.3 115.1 976 66 5 Image --
1990 1 15 18 -15.7 114.1 976 66 5 Image --
1990 1 16 00 -16.0 113.1 976 66 5 Image --
1990 1 16 06 -16.2 112.0 976 66 5 Image --
1990 1 16 12 -16.6 110.9 976 66 5 Image --
1990 1 16 18 -17.2 109.9 974 68 5 Image --
1990 1 17 00 -17.9 109.0 974 68 5 Image --
1990 1 17 06 -18.5 108.3 972 70 5 Image --
1990 1 17 12 -19.1 107.6 970 74 5 Image --
1990 1 17 18 -19.5 107.0 968 76 5 Image --
1990 1 18 00 -20.0 106.5 966 78 5 Image --
1990 1 18 06 -20.8 106.0 966 78 5 Image --
1990 1 18 12 -21.6 105.7 966 78 5 Image --
1990 1 18 18 -22.4 105.3 970 74 5 Image --
1990 1 19 00 -22.9 105.1 975 66 5 Image --
1990 1 19 06 -23.5 105.0 980 60 4 Image --
1990 1 19 12 -24.4 105.0 985 54 4 Image --
1990 1 19 18 -25.3 105.0 990 47 3 Image --
1990 1 20 00 -25.9 105.1 994 41 3 Image --
1990 1 20 06 -26.3 105.4 997 35 3 Image --
1990 1 20 12 -26.8 106.2 999 33 2 Image --
1990 1 20 18 -27.0 107.0 1002 27 2 Image --
1990 1 21 00 -27.3 108.1 1002 27 2 Image --
1990 1 21 06 -27.6 109.0 1003 27 2 Image --
< Cyclone 199003 1990 Season Cyclone 199005 >

Help